Hauptseite
METAR-TAF:

METAR-TAF

Flughäfen :

Flugplatz St. Gallen-Altenrhein

St. Gallen, Schweiz

Breite: 47-29-06N, Länge: 009-33-43E, Höhe: 398 m

Beobachtung

Neuester Wetterbericht von vor 7 Minuten, um 04:20 UTC
Wind 2 kt aus unterschiedlichen Richtungen
Temperatur 8°C
Luftfeuchtigkeit 81%
Luftdruck 1021 hPa
Sichtweite: 6000 m
Geschlossene Wolkendecke in der Höhe von 4400 ft

METAR: LSZR 250420Z AUTO VRB02KT 6000 OVC044 08/05 Q1021

Zeit: 05:27 (04:27 UTC)

Prognose

Neuester Wetterbericht von vor 14 Stunden und 2 Minuten, um 14:25 UTC
Gültige Prognose vom 24 um 15 UTC bis 24 um 24 UTC
Wind 3 kt aus unterschiedlichen Richtungen
Sichtweite 10 km oder mehr
keine Wolken unter 1500 m und keine Kumulonimbus oder Gewitterwolken
Übergehend zu
vom 24 um 17 UTC bis 24 um 19 UTC
Sichtweite 10 km oder mehr
Durchbrochene Bewölkung in der Höhe von 6000 ft

TAF: LSZR 241425Z 2415/2424 VRB03KT CAVOK BECMG 2417/2419 9999 BKN060

Wetterbeobachtungen und Prognosen von mehr als 4000 Flughäfen (METAR und TAF Bericht).

Die verfügbaren Stationen werden durch gelbe und rote Markierungen auf der Karte dargestellt.

Führen Sie die Maus auf sie, um den Namen der Station zu sehen.

Darauf klicken, um die Beobachtung von Wetterbeobachtungen und Prognosen zu sehen.

Um die Karte zu ändern : klicken Sie auf den grünen Tasten mit einem schwarzen Kreuz Zum Vergrößern, auf den grünen Button mit einem Gedankenstrich zu verkleinern, oder auf die grünen Pfeile für benachbarte Karten.


METAR-TAF: